createdAt,value
2024-02-02T05:06:39.126Z,101881.47
2024-02-02T05:09:41.685Z,101883.34
2024-02-02T05:12:45.803Z,101890.44
2024-02-02T05:15:48.403Z,101888.50
2024-02-02T05:18:52.397Z,101889.69
2024-02-02T05:21:55.158Z,101888.91
2024-02-02T05:24:57.736Z,101878.84
2024-02-02T05:28:00.324Z,101883.16
2024-02-02T05:31:03.004Z,101886.59
2024-02-02T05:34:05.936Z,101885.44
2024-02-02T05:37:08.586Z,101889.31
2024-02-02T05:40:11.283Z,101881.59
2024-02-02T05:43:13.885Z,101882.03
2024-02-02T05:46:16.430Z,101885.63
2024-02-02T05:49:19.217Z,101895.38
2024-02-02T05:52:21.883Z,101896.59
2024-02-02T05:55:24.457Z,101896.09
2024-02-02T05:58:27.038Z,101894.59
2024-02-02T06:01:29.657Z,101895.38
2024-02-02T06:04:32.313Z,101896.81
2024-02-02T06:07:34.834Z,101906.91
2024-02-02T06:10:37.411Z,101904.94
2024-02-02T06:13:41.646Z,101904.63
2024-02-02T06:16:44.241Z,101906.53
2024-02-02T06:19:46.942Z,101909.25
2024-02-02T06:22:49.651Z,101917.75
2024-02-02T06:25:52.222Z,101923.16
2024-02-02T06:28:54.859Z,101920.00
2024-02-02T06:31:58.689Z,101926.88
2024-02-02T06:35:01.642Z,101943.88
2024-02-02T06:38:04.591Z,101943.25
2024-02-02T06:41:08.695Z,101946.22
2024-02-02T06:44:11.348Z,101948.88
2024-02-02T06:47:13.946Z,101956.16
2024-02-02T06:50:16.529Z,101959.31
2024-02-02T06:53:19.144Z,101959.94
2024-02-02T06:56:38.703Z,101955.22
2024-02-02T06:59:44.014Z,101960.97
2024-02-02T07:02:47.764Z,101960.63
2024-02-02T07:05:50.621Z,101971.59
2024-02-02T07:08:54.197Z,101984.44
2024-02-02T07:12:37.620Z,101983.41
2024-02-02T07:15:44.866Z,101982.06
2024-02-02T07:18:47.837Z,101980.88
2024-02-02T07:21:50.608Z,101982.03
2024-02-02T07:24:53.265Z,101984.72
2024-02-02T07:28:00.420Z,101989.81
2024-02-02T07:31:03.975Z,101984.59
2024-02-02T07:34:38.945Z,101993.91
2024-02-02T07:37:48.375Z,101981.00
2024-02-02T07:40:59.333Z,101980.63
2024-02-02T07:44:02.918Z,101987.25
2024-02-02T07:47:05.868Z,101991.91
2024-02-02T07:50:08.855Z,101983.41
2024-02-02T07:53:12.000Z,101996.31
2024-02-02T07:56:27.207Z,101997.66
2024-02-02T07:59:30.712Z,101986.56
2024-02-02T08:02:33.358Z,101991.03
2024-02-02T08:05:40.719Z,101998.06
2024-02-02T08:08:43.728Z,102001.69
2024-02-02T08:11:46.585Z,102004.97
2024-02-02T08:15:01.280Z,101997.63
2024-02-02T08:18:04.912Z,102004.72
2024-02-02T08:21:08.512Z,102006.69
2024-02-02T08:24:12.153Z,102008.31
2024-02-02T08:27:16.252Z,102003.44
2024-02-02T08:30:19.703Z,102005.50
2024-02-02T08:33:24.954Z,102012.09
2024-02-02T08:36:27.685Z,102016.28
2024-02-02T08:39:34.623Z,102018.63
2024-02-02T08:42:37.399Z,102016.19
2024-02-02T08:45:42.999Z,102020.94
2024-02-02T08:48:49.741Z,102024.84
2024-02-02T08:51:55.543Z,102024.53
2024-02-02T08:54:58.674Z,102029.22
2024-02-02T08:58:25.005Z,102032.53
2024-02-02T09:01:43.933Z,102033.13
2024-02-02T09:04:58.713Z,102038.94
2024-02-02T09:08:33.025Z,102038.69
2024-02-02T09:11:36.479Z,102043.81
2024-02-02T09:14:39.126Z,102043.13
2024-02-02T09:17:42.477Z,102039.47
2024-02-02T09:20:46.648Z,102040.88
2024-02-02T09:23:50.592Z,102051.41
2024-02-02T09:26:53.332Z,102045.41
2024-02-02T09:29:56.201Z,102052.34
2024-02-02T09:32:59.288Z,102048.31
2024-02-02T09:36:04.519Z,102040.41
2024-02-02T09:39:27.628Z,102029.22
2024-02-02T09:43:02.798Z,102019.44
2024-02-02T09:46:22.157Z,102016.72
2024-02-02T09:49:30.699Z,102014.16
2024-02-02T09:52:54.411Z,102026.91
2024-02-02T09:56:09.992Z,102019.84
2024-02-02T09:59:42.803Z,102024.09
2024-02-02T10:03:01.171Z,102026.66
2024-02-02T10:06:22.237Z,102021.03
2024-02-02T10:09:46.150Z,102022.97
2024-02-02T10:13:18.226Z,102016.38
2024-02-02T10:16:44.308Z,102026.84
2024-02-02T10:19:46.962Z,102009.66
2024-02-02T10:23:01.781Z,102010.06
2024-02-02T10:26:22.776Z,102010.69
2024-02-02T10:29:54.728Z,101993.44
2024-02-02T10:33:23.161Z,101994.69
2024-02-02T10:37:04.244Z,101986.63
2024-02-02T10:40:10.885Z,101985.25
2024-02-02T10:43:30.085Z,101979.53
2024-02-02T10:46:54.648Z,101987.47
2024-02-02T10:50:06.549Z,101976.56
2024-02-02T10:53:17.687Z,101955.47
2024-02-02T10:56:39.985Z,101966.34
2024-02-02T10:59:58.749Z,101973.88
2024-02-02T11:03:12.634Z,101991.69
2024-02-02T11:06:24.459Z,101987.00
2024-02-02T11:09:35.794Z,101974.75
2024-02-02T11:12:47.586Z,101973.47
2024-02-02T11:16:02.653Z,101962.97
2024-02-02T11:19:11.579Z,101961.47
2024-02-02T11:22:40.402Z,101950.97
2024-02-02T11:25:54.329Z,101951.97
2024-02-02T11:29:09.027Z,101949.88
2024-02-02T11:32:50.367Z,101945.06
2024-02-02T11:36:05.082Z,101936.88
2024-02-02T11:39:30.420Z,101946.13
2024-02-02T11:42:37.107Z,101943.19
2024-02-02T11:45:41.140Z,101932.75
2024-02-02T11:48:55.881Z,101935.03
2024-02-02T11:52:08.624Z,101930.09
2024-02-02T11:55:36.800Z,101932.78
2024-02-02T11:59:13.039Z,101933.28
2024-02-02T12:02:44.143Z,101931.03
2024-02-02T12:06:07.999Z,101922.88
2024-02-02T12:09:18.023Z,101926.41
2024-02-02T12:12:37.827Z,101928.13
2024-02-02T12:15:41.281Z,101919.03
2024-02-02T12:18:45.516Z,101913.56
2024-02-02T12:21:48.951Z,101915.97
2024-02-02T12:24:52.399Z,101905.22
2024-02-02T12:27:55.520Z,101913.16
2024-02-02T12:31:17.638Z,101906.72
2024-02-02T12:34:20.408Z,101907.06
2024-02-02T12:37:23.221Z,101898.16
2024-02-02T12:40:26.533Z,101897.28
2024-02-02T12:43:30.202Z,101895.63
2024-02-02T12:46:44.832Z,101902.53
2024-02-02T12:49:52.303Z,101900.06
2024-02-02T12:52:56.366Z,101896.09
2024-02-02T12:56:00.032Z,101901.03
2024-02-02T12:59:06.093Z,101900.53
2024-02-02T13:02:08.886Z,101899.78
2024-02-02T13:05:18.418Z,101902.81
2024-02-02T13:08:31.080Z,101898.25
2024-02-02T13:11:37.990Z,101897.63
2024-02-02T13:14:41.779Z,101901.44
2024-02-02T13:17:45.289Z,101900.91
2024-02-02T13:20:50.565Z,101903.06
2024-02-02T13:24:00.326Z,101895.06
2024-02-02T13:27:06.814Z,101895.63
2024-02-02T13:30:14.784Z,101881.94
2024-02-02T13:33:21.352Z,101880.53
2024-02-02T13:36:24.739Z,101876.97
2024-02-02T13:39:28.057Z,101877.75
2024-02-02T13:42:36.765Z,101880.19
2024-02-02T13:45:44.715Z,101871.81
2024-02-02T13:48:48.921Z,101873.94
2024-02-02T13:51:52.969Z,101879.09
2024-02-02T13:54:55.609Z,101873.38
2024-02-02T13:57:58.625Z,101870.63
2024-02-02T14:01:15.890Z,101867.56
2024-02-02T14:04:30.213Z,101868.19
2024-02-02T14:07:32.878Z,101870.63
2024-02-02T14:10:46.743Z,101864.81
2024-02-02T14:13:50.121Z,101868.50
2024-02-02T14:17:02.240Z,101862.66
2024-02-02T14:20:06.723Z,101855.50
2024-02-02T14:23:13.251Z,101860.88
2024-02-02T14:26:15.850Z,101854.75
2024-02-02T14:29:19.262Z,101854.88
2024-02-02T14:32:21.946Z,101865.78
2024-02-02T14:35:24.725Z,101868.31
2024-02-02T14:38:27.501Z,101868.34
2024-02-02T14:41:30.132Z,101867.50
2024-02-02T14:44:33.112Z,101869.16
2024-02-02T14:47:35.873Z,101867.81
2024-02-02T14:50:40.086Z,101863.97
2024-02-02T14:53:42.719Z,101874.41
2024-02-02T14:56:45.911Z,101874.44
2024-02-02T14:59:52.828Z,101870.03
2024-02-02T15:02:55.565Z,101868.47
2024-02-02T15:06:00.041Z,101877.19
2024-02-02T15:09:14.220Z,101883.75
2024-02-02T15:12:19.000Z,101888.31
2024-02-02T15:15:21.710Z,101885.84
2024-02-02T15:18:24.456Z,101879.53
2024-02-02T15:21:27.280Z,101882.66
2024-02-02T15:24:31.681Z,101883.31
2024-02-02T15:27:38.656Z,101889.31
2024-02-02T15:30:44.190Z,101875.38
2024-02-02T15:33:47.299Z,101882.13
2024-02-02T15:36:50.240Z,101879.63
2024-02-02T15:39:57.983Z,101872.09
2024-02-02T15:43:00.611Z,101873.88
2024-02-02T15:46:03.901Z,101873.94
2024-02-02T15:49:07.311Z,101869.88
2024-02-02T15:52:10.058Z,101873.47
2024-02-02T15:55:13.304Z,101872.56
2024-02-02T15:58:16.169Z,101876.31
2024-02-02T16:01:19.013Z,101874.00
2024-02-02T16:04:23.169Z,101880.75
2024-02-02T16:07:25.975Z,101879.38
2024-02-02T16:10:30.791Z,101887.00
2024-02-02T16:13:33.431Z,101891.47
2024-02-02T16:16:36.935Z,101885.44
2024-02-02T16:19:40.625Z,101899.34
2024-02-02T16:22:43.439Z,101890.94
2024-02-02T16:25:46.033Z,101892.91
2024-02-02T16:28:49.044Z,101882.41
2024-02-02T16:31:51.727Z,101885.91
2024-02-02T16:34:54.522Z,101888.72
2024-02-02T16:37:57.314Z,101887.66
2024-02-02T16:40:59.867Z,101892.00
2024-02-02T16:44:02.446Z,101898.97
2024-02-02T16:47:05.250Z,101897.78
2024-02-02T16:50:08.338Z,101899.56
2024-02-02T16:53:10.923Z,101898.41
2024-02-02T16:56:19.962Z,101905.91
2024-02-02T16:59:26.946Z,101902.56
2024-02-02T17:02:30.403Z,101898.94
2024-02-02T17:05:32.967Z,101894.78
2024-02-02T17:08:35.613Z,101885.13
2024-02-02T17:11:40.122Z,101895.59
2024-02-02T17:14:48.150Z,101879.16
2024-02-02T17:17:51.599Z,101873.16
2024-02-02T17:20:54.300Z,101877.31
2024-02-02T17:23:57.335Z,101886.78
2024-02-02T17:27:17.250Z,101882.28
2024-02-02T17:30:32.241Z,101879.28
2024-02-02T17:33:35.262Z,101885.63
2024-02-02T17:36:38.275Z,101889.28
2024-02-02T17:39:41.160Z,101888.63
2024-02-02T17:42:45.036Z,101878.03
2024-02-02T17:45:48.037Z,101880.88
2024-02-02T17:48:55.793Z,101879.13
2024-02-02T17:52:03.298Z,101860.81
2024-02-02T17:55:12.090Z,101849.72
2024-02-02T17:58:26.305Z,101854.63
2024-02-02T18:01:29.198Z,101857.78
2024-02-02T18:04:31.818Z,101861.81
2024-02-02T18:07:44.331Z,101861.47
2024-02-02T18:10:50.660Z,101859.03
2024-02-02T18:13:53.324Z,101860.81
2024-02-02T18:16:55.958Z,101856.56
2024-02-02T18:19:59.797Z,101864.66
2024-02-02T18:23:02.410Z,101869.41
2024-02-02T18:26:08.272Z,101873.50
2024-02-02T18:29:11.264Z,101870.34
2024-02-02T18:32:24.030Z,101865.84
2024-02-02T18:35:27.010Z,101858.56
2024-02-02T18:38:30.261Z,101857.88
2024-02-02T18:41:33.624Z,101859.91
2024-02-02T18:45:04.494Z,101855.34
2024-02-02T18:48:09.558Z,101863.38
2024-02-02T18:51:20.970Z,101856.13
2024-02-02T18:54:32.159Z,101856.03
2024-02-02T18:58:11.293Z,101858.69
2024-02-02T19:01:33.394Z,101850.22
2024-02-02T19:04:49.377Z,101857.53
2024-02-02T19:07:54.281Z,101851.59
2024-02-02T19:11:02.345Z,101847.25
2024-02-02T19:14:16.843Z,101849.81
2024-02-02T19:17:24.209Z,101837.22
2024-02-02T19:20:27.674Z,101848.97
2024-02-02T19:23:33.645Z,101846.06
2024-02-02T19:26:36.284Z,101848.34
2024-02-02T19:29:38.994Z,101844.94
2024-02-02T19:32:41.830Z,101836.19
2024-02-02T19:35:44.600Z,101831.94
2024-02-02T19:38:47.677Z,101833.84
2024-02-02T19:41:50.258Z,101834.78
2024-02-02T19:44:52.901Z,101817.41
2024-02-02T19:47:57.522Z,101806.53
2024-02-02T19:51:00.159Z,101810.91
2024-02-02T19:54:02.787Z,101812.44
2024-02-02T19:57:05.593Z,101804.31
2024-02-02T20:00:14.833Z,101805.16
2024-02-02T20:03:18.072Z,101806.72
2024-02-02T20:06:21.478Z,101799.88
2024-02-02T20:09:24.366Z,101796.28
2024-02-02T20:12:27.049Z,101794.66
2024-02-02T20:15:30.250Z,101793.31
2024-02-02T20:18:33.042Z,101792.13
2024-02-02T20:21:35.734Z,101791.22
2024-02-02T20:24:42.597Z,101784.66
2024-02-02T20:27:45.198Z,101778.19
2024-02-02T20:30:48.031Z,101771.09
2024-02-02T20:33:53.016Z,101776.38
2024-02-02T20:36:55.887Z,101769.78
2024-02-02T20:39:58.881Z,101757.06
2024-02-02T20:43:01.814Z,101749.66
2024-02-02T20:46:04.919Z,101751.34
2024-02-02T20:49:07.792Z,101751.28
2024-02-02T20:52:17.293Z,101752.38
2024-02-02T20:55:20.794Z,101741.41
2024-02-02T20:58:23.810Z,101729.28
2024-02-02T21:01:26.699Z,101724.66
2024-02-02T21:04:29.814Z,101731.22
2024-02-02T21:07:33.430Z,101742.03
2024-02-02T21:10:36.444Z,101739.63
2024-02-02T21:13:39.205Z,101738.78
2024-02-02T21:16:42.442Z,101743.81
2024-02-02T21:19:45.868Z,101736.50
2024-02-02T21:22:48.559Z,101725.44
2024-02-02T21:25:51.305Z,101731.84
2024-02-02T21:28:53.914Z,101732.53
2024-02-02T21:31:56.497Z,101713.81
2024-02-02T21:34:59.103Z,101702.50
2024-02-02T21:38:01.771Z,101689.03
